Time;durP1;ratioP1;P1;durP2;ratioP2;P2;SDS_P1;SDS_P2;PMS_P1;PMS_P2;Temp;Humidity;BMP_temperature;BMP_pressure;BME280_temperature;BME280_humidity;BME280_pressure;Samples;Min_cycle;Max_cycle;Signal;HPM_P1;HPM_P2
2021/12/09 00:00:37;;;;;;;65.13;29.33;;;;;;;1.43;nan;99867.38;5116993;28;20412;-69
2021/12/09 00:03:06;;;;;;;60.03;28.27;;;;;;;1.42;nan;99852.50;5117356;28;20798;-68
2021/12/09 00:05:32;;;;;;;54.87;27.20;;;;;;;1.69;nan;99861.31;5115640;28;20574;-68
2021/12/09 00:07:57;;;;;;;58.23;27.83;;;;;;;1.33;nan;99854.56;5117889;28;20405;-69
2021/12/09 00:10:23;;;;;;;57.57;27.53;;;;;;;1.25;nan;99842.53;5115759;28;20453;-69
2021/12/09 00:12:48;;;;;;;62.33;28.17;;;;;;;1.34;nan;99861.53;5115737;28;20208;-68
2021/12/09 00:15:13;;;;;;;60.13;27.47;;;;;;;1.02;nan;99857.25;5116760;28;20232;-68
2021/12/09 00:17:39;;;;;;;59.97;27.03;;;;;;;1.19;nan;99852.38;5115736;28;20534;-67
2021/12/09 00:20:05;;;;;;;57.33;27.90;;;;;;;1.80;nan;99871.47;5098273;28;20176;-68
2021/12/09 00:22:30;;;;;;;61.13;27.53;;;;;;;1.74;nan;99832.22;5115366;28;20177;-68
2021/12/09 00:24:55;;;;;;;63.00;28.87;;;;;;;1.57;nan;99853.81;5116800;28;20413;-68
2021/12/09 00:27:21;;;;;;;56.17;26.60;;;;;;;1.20;nan;99833.06;5115843;28;20194;-68
2021/12/09 00:29:46;;;;;;;51.73;26.90;;;;;;;1.00;nan;99824.91;5115837;28;20551;-67
2021/12/09 00:32:11;;;;;;;58.03;26.80;;;;;;;0.52;nan;99846.44;5118225;28;20181;-68
2021/12/09 00:34:40;;;;;;;60.00;29.20;;;;;;;1.05;nan;99850.13;5116534;28;20179;-68
2021/12/09 00:37:18;;;;;;;54.80;24.30;;;;;;;0.41;nan;99824.88;5115083;28;20222;-68
2021/12/09 00:39:44;;;;;;;57.87;28.07;;;;;;;1.50;nan;99829.50;5115540;28;20923;-69
2021/12/09 00:42:10;;;;;;;61.47;29.70;;;;;;;1.99;nan;99806.81;5116396;28;20505;-69
2021/12/09 00:44:36;;;;;;;55.00;27.60;;;;;;;1.96;nan;99829.75;5116267;28;20857;-69
2021/12/09 00:47:02;;;;;;;63.20;29.33;;;;;;;1.57;nan;99824.88;5114835;28;20197;-68
2021/12/09 00:49:30;;;;;;;61.73;29.33;;;;;;;2.08;nan;99832.81;5116108;28;20420;-68
2021/12/09 00:51:56;;;;;;;63.43;30.40;;;;;;;1.58;nan;99828.38;5114449;28;20586;-68
2021/12/09 00:54:21;;;;;;;65.47;27.13;;;;;;;0.79;nan;99824.66;5114642;28;20792;-68
2021/12/09 00:56:46;;;;;;;61.93;29.13;;;;;;;1.38;nan;99824.59;5115693;28;20457;-68
2021/12/09 00:59:13;;;;;;;56.23;26.70;;;;;;;1.75;nan;99847.94;5114507;28;20185;-67
2021/12/09 01:01:38;;;;;;;50.47;24.40;;;;;;;0.96;nan;99799.63;5097595;28;20182;-68
2021/12/09 01:04:03;;;;;;;54.87;25.33;;;;;;;0.78;nan;99785.28;5114761;28;20418;-68
2021/12/09 01:06:29;;;;;;;61.40;29.50;;;;;;;1.62;nan;99799.28;5114089;28;20211;-68
2021/12/09 01:08:54;;;;;;;60.10;28.17;;;;;;;0.86;nan;99809.56;5116036;28;20234;-68
2021/12/09 01:11:19;;;;;;;65.83;28.67;;;;;;;1.25;nan;99810.13;5114099;28;20556;-68
2021/12/09 01:13:45;;;;;;;44.90;19.77;;;;;;;0.61;nan;99777.91;5114329;28;20212;-68
2021/12/09 01:16:11;;;;;;;62.63;30.13;;;;;;;0.98;nan;99803.06;5115726;28;20597;-68
2021/12/09 01:18:37;;;;;;;67.07;29.20;;;;;;;0.83;nan;99805.25;5115705;28;20334;-67
2021/12/09 01:21:03;;;;;;;55.93;26.10;;;;;;;1.10;nan;99800.91;5114266;28;20412;-68
2021/12/09 01:23:29;;;;;;;60.30;27.77;;;;;;;1.07;nan;99773.88;5114298;28;20508;-68
2021/12/09 01:25:59;;;;;;;67.17;30.93;;;;;;;0.86;nan;99786.78;5115400;28;20517;-67
2021/12/09 01:28:27;;;;;;;61.57;25.37;;;;;;;0.49;nan;99794.88;5115591;28;20240;-68
2021/12/09 01:31:01;;;;;;;55.03;26.90;;;;;;;0.67;nan;99803.97;5115202;28;20452;-68
2021/12/09 01:33:26;;;;;;;63.77;31.43;;;;;;;0.77;nan;99800.19;5115410;28;20396;-68
2021/12/09 01:35:51;;;;;;;55.47;25.27;;;;;;;0.42;nan;99797.72;5113597;28;20437;-69
2021/12/09 01:38:17;;;;;;;58.80;31.00;;;;;;;1.08;nan;99800.09;5115210;28;20172;-68
2021/12/09 01:40:44;;;;;;;57.83;28.30;;;;;;;0.58;nan;99788.50;5113670;28;20162;-68
2021/12/09 01:43:10;;;;;;;64.63;29.43;;;;;;;0.81;nan;99807.06;5114215;28;20725;-68
2021/12/09 01:45:35;;;;;;;66.40;31.50;;;;;;;1.18;nan;99798.09;5113823;28;20428;-67
2021/12/09 01:48:01;;;;;;;67.77;31.53;;;;;;;1.50;nan;99802.34;5114708;28;20173;-68
2021/12/09 01:50:27;;;;;;;67.70;31.60;;;;;;;1.20;nan;99783.13;5114058;28;20196;-68
2021/12/09 01:52:52;;;;;;;61.20;29.60;;;;;;;0.97;nan;99775.06;5113367;28;20247;-68
2021/12/09 01:55:19;;;;;;;52.50;24.73;;;;;;;0.62;nan;99795.38;5113158;28;20170;-68
2021/12/09 01:57:49;;;;;;;56.83;27.50;;;;;;;1.08;nan;99746.69;5114519;28;20320;-67
2021/12/09 02:00:18;;;;;;;54.73;26.33;;;;;;;0.79;nan;99772.13;5114497;28;20410;-68
2021/12/09 02:02:44;;;;;;;60.40;30.67;;;;;;;0.95;nan;99798.78;5114376;28;20424;-68
2021/12/09 02:05:11;;;;;;;59.17;30.10;;;;;;;1.36;nan;99796.63;5113268;28;20497;-68
2021/12/09 02:07:37;;;;;;;65.53;29.43;;;;;;;1.51;nan;99773.34;5114143;28;20202;-68
2021/12/09 02:10:09;;;;;;;60.63;30.63;;;;;;;1.42;nan;99778.88;5113188;28;20910;-68
2021/12/09 02:12:35;;;;;;;56.63;29.37;;;;;;;1.49;nan;99762.03;5114485;28;20209;-67
2021/12/09 02:15:01;;;;;;;65.23;28.63;;;;;;;1.09;nan;99766.81;5113236;28;20412;-68
2021/12/09 02:17:30;;;;;;;56.80;27.50;;;;;;;1.29;nan;99768.81;5113070;28;20317;-67
2021/12/09 02:19:57;;;;;;;45.80;20.60;;;;;;;0.48;nan;99776.53;5114026;28;20410;-68
2021/12/09 02:22:23;;;;;;;56.60;28.27;;;;;;;0.73;nan;99808.19;5112654;28;20417;-67
2021/12/09 02:24:48;;;;;;;62.17;31.43;;;;;;;1.50;nan;99808.44;5113937;28;20412;-67
2021/12/09 02:27:13;;;;;;;68.47;30.03;;;;;;;1.34;nan;99770.38;5113964;28;20198;-68
2021/12/09 02:29:41;;;;;;;55.87;27.17;;;;;;;1.36;nan;99788.75;5112597;28;20539;-67
2021/12/09 02:32:07;;;;;;;58.83;28.30;;;;;;;1.76;nan;99825.13;5113693;28;20189;-68
2021/12/09 02:34:32;;;;;;;59.73;29.33;;;;;;;1.81;nan;99792.50;5112990;28;20421;-68
2021/12/09 02:36:57;;;;;;;57.77;28.53;;;;;;;2.25;nan;99800.66;5112477;28;20219;-67
2021/12/09 02:39:23;;;;;;;59.30;29.50;;;;;;;2.20;nan;99784.13;5112494;28;20559;-67
2021/12/09 02:41:49;;;;;;;62.60;28.80;;;;;;;1.17;nan;99793.75;5112362;28;20564;-68
2021/12/09 02:44:17;;;;;;;62.60;30.97;;;;;;;1.67;nan;99818.41;5113840;28;20690;-66
2021/12/09 02:46:43;;;;;;;60.97;30.23;;;;;;;1.88;nan;99819.50;5112323;28;20776;-68
2021/12/09 02:49:18;;;;;;;67.13;31.63;;;;;;;1.73;nan;99822.59;5095371;28;20508;-67
2021/12/09 02:51:45;;;;;;;64.60;30.40;;;;;;;2.17;nan;99794.78;5112296;28;20663;-67
2021/12/09 02:54:12;;;;;;;57.60;29.40;;;;;;;1.91;nan;99811.47;5095282;28;20476;-67
2021/12/09 02:56:37;;;;;;;51.13;21.77;;;;;;;0.66;nan;99775.13;5112608;28;20434;-67
2021/12/09 02:59:04;;;;;;;55.73;28.60;;;;;;;2.02;nan;99811.13;5112212;28;20433;-68
2021/12/09 03:01:33;;;;;;;57.73;29.47;;;;;;;1.87;nan;99776.53;5112564;28;20170;-67
2021/12/09 03:04:01;;;;;;;63.27;30.60;;;;;;;1.65;nan;99817.59;5095256;28;20488;-67
2021/12/09 03:06:33;;;;;;;63.70;30.80;;;;;;;2.25;nan;99808.56;5112036;28;20522;-67
2021/12/09 03:09:02;;;;;;;60.63;29.10;;;;;;;1.62;nan;99793.16;5112258;28;20411;-67
2021/12/09 03:11:28;;;;;;;59.37;28.77;;;;;;;1.71;nan;99809.50;5113426;28;20444;-67
2021/12/09 03:13:53;;;;;;;60.20;28.20;;;;;;;1.74;nan;99821.69;5112097;28;20422;-67
2021/12/09 03:16:22;;;;;;;59.63;27.20;;;;;;;1.08;nan;99831.66;5112231;28;20268;-68
2021/12/09 03:18:54;;;;;;;60.43;29.20;;;;;;;1.84;nan;99839.75;5113791;28;20176;-68
2021/12/09 03:21:23;;;;;;;62.27;28.73;;;;;;;2.15;nan;99808.00;5113862;28;20398;-67
2021/12/09 03:23:48;;;;;;;57.10;28.83;;;;;;;1.89;nan;99797.53;5112476;28;20416;-67
2021/12/09 03:26:15;;;;;;;57.37;29.33;;;;;;;1.45;nan;99839.25;5113374;28;20196;-68
2021/12/09 03:28:40;;;;;;;64.27;29.60;;;;;;;1.99;nan;99819.13;5111854;28;20201;-68
2021/12/09 03:31:06;;;;;;;61.57;28.13;;;;;;;1.67;nan;99814.91;5113292;28;20484;-68
2021/12/09 03:33:31;;;;;;;63.00;29.63;;;;;;;1.60;nan;99813.41;5111790;28;20592;-68
2021/12/09 03:36:02;;;;;;;58.80;29.00;;;;;;;1.37;nan;99836.03;5113097;28;20274;-66
2021/12/09 03:38:28;;;;;;;59.23;27.67;;;;;;;1.24;nan;99827.66;5113190;28;20174;-67
2021/12/09 03:40:55;;;;;;;64.87;29.77;;;;;;;1.52;nan;99805.78;5111818;28;20407;-67
2021/12/09 03:43:20;;;;;;;61.80;29.57;;;;;;;1.99;nan;99821.75;5111927;28;20260;-67
2021/12/09 03:45:46;;;;;;;65.80;28.70;;;;;;;1.13;nan;99813.13;5113134;28;20976;-67
2021/12/09 03:48:11;;;;;;;67.00;30.83;;;;;;;1.14;nan;99822.75;5112892;28;20176;-67
2021/12/09 03:50:37;;;;;;;59.90;29.63;;;;;;;1.86;nan;99803.75;5111544;28;20289;-68
2021/12/09 03:53:02;;;;;;;63.47;30.17;;;;;;;2.03;nan;99826.84;5111989;28;20171;-67
2021/12/09 03:55:28;;;;;;;59.97;28.83;;;;;;;1.04;nan;99800.25;5112827;28;20490;-68
2021/12/09 03:57:54;;;;;;;60.93;28.43;;;;;;;0.79;nan;99832.53;5111708;28;20172;-68
2021/12/09 04:00:20;;;;;;;65.23;26.53;;;;;;;0.66;nan;99828.50;5113130;28;20268;-68
2021/12/09 04:02:45;;;;;;;66.30;31.17;;;;;;;1.50;nan;99820.75;5111578;28;20448;-68
2021/12/09 04:05:10;;;;;;;67.27;29.63;;;;;;;1.18;nan;99825.22;5112006;28;20688;-69
2021/12/09 04:07:36;;;;;;;62.77;29.13;;;;;;;1.63;nan;99823.81;5112703;28;20180;-69
2021/12/09 04:10:05;;;;;;;59.10;30.27;;;;;;;1.62;nan;99830.00;5112582;28;20175;-68
2021/12/09 04:12:30;;;;;;;70.03;29.20;;;;;;;1.82;nan;99809.13;5114068;28;20173;-68
2021/12/09 04:14:55;;;;;;;60.53;30.03;;;;;;;1.51;nan;99809.31;5116445;28;20429;-68
2021/12/09 04:17:20;;;;;;;70.10;32.03;;;;;;;1.33;nan;99812.50;5114989;28;20686;-68
2021/12/09 04:19:47;;;;;;;59.33;29.73;;;;;;;1.46;nan;99812.06;5116276;28;20172;-68
2021/12/09 04:22:17;;;;;;;61.67;28.87;;;;;;;1.63;nan;99819.41;5115069;28;20165;-68
2021/12/09 04:24:43;;;;;;;65.20;28.73;;;;;;;1.38;nan;99824.59;5115121;28;20480;-68
2021/12/09 04:27:08;;;;;;;62.07;28.50;;;;;;;1.20;nan;99817.28;5097826;28;20429;-68
2021/12/09 04:29:34;;;;;;;68.67;31.50;;;;;;;1.56;nan;99808.25;5115242;28;20565;-68
2021/12/09 04:31:59;;;;;;;65.00;31.23;;;;;;;1.73;nan;99804.19;5115352;28;20205;-67
2021/12/09 04:34:24;;;;;;;63.03;29.00;;;;;;;1.35;nan;99797.53;5114826;28;20310;-68
2021/12/09 04:36:50;;;;;;;57.47;28.80;;;;;;;1.31;nan;99798.56;5115065;28;20197;-68
2021/12/09 04:39:15;;;;;;;70.53;32.17;;;;;;;1.37;nan;99804.47;5115968;28;20225;-67
2021/12/09 04:41:41;;;;;;;62.20;28.93;;;;;;;1.45;nan;99809.47;5115018;28;20169;-67
2021/12/09 04:44:07;;;;;;;67.47;29.83;;;;;;;1.46;nan;99791.03;5116189;28;20172;-69
2021/12/09 04:46:33;;;;;;;70.40;31.93;;;;;;;1.37;nan;99807.09;5114559;28;20186;-67
2021/12/09 04:48:58;;;;;;;61.00;29.53;;;;;;;1.00;nan;99774.97;5114828;28;20407;-69
2021/12/09 04:51:23;;;;;;;54.93;27.33;;;;;;;1.38;nan;99793.03;5114439;28;20195;-69
2021/12/09 04:53:49;;;;;;;63.60;29.40;;;;;;;1.62;nan;99777.38;5114468;28;20167;-69
2021/12/09 04:56:14;;;;;;;66.03;30.33;;;;;;;1.45;nan;99789.31;5114456;28;20203;-69
2021/12/09 04:58:40;;;;;;;66.10;29.87;;;;;;;1.51;nan;99796.16;5114538;28;20176;-71
2021/12/09 05:01:06;;;;;;;67.97;28.80;;;;;;;1.47;nan;99802.41;5097387;28;20177;-70
2021/12/09 05:03:31;;;;;;;58.27;29.87;;;;;;;1.24;nan;99774.22;5097390;28;20197;-70
2021/12/09 05:05:57;;;;;;;62.03;28.63;;;;;;;1.17;nan;99793.75;5115288;28;20289;-70
2021/12/09 05:08:24;;;;;;;60.37;27.27;;;;;;;0.73;nan;99826.56;5115607;28;20170;-70
2021/12/09 05:13:24;;;;;;;59.57;30.07;;;;;;;1.39;nan;99805.28;5114746;28;20393;-71
2021/12/09 05:15:50;;;;;;;68.23;30.87;;;;;;;1.21;nan;99819.88;5115382;28;20432;-71
2021/12/09 05:18:17;;;;;;;55.70;25.60;;;;;;;0.79;nan;99819.41;5114020;28;20413;-67
2021/12/09 05:20:43;;;;;;;51.17;22.20;;;;;;;0.64;nan;99788.31;5115289;27;20462;-69
2021/12/09 05:23:08;;;;;;;58.10;29.20;;;;;;;1.33;nan;99788.84;5114116;28;20462;-67
2021/12/09 05:25:33;;;;;;;58.30;28.13;;;;;;;1.46;nan;99804.16;5114419;28;20505;-66
2021/12/09 05:27:59;;;;;;;57.17;27.63;;;;;;;1.00;nan;99785.50;5113960;28;20166;-64
2021/12/09 05:30:37;;;;;;;56.10;26.20;;;;;;;1.11;nan;99791.28;5115407;28;20195;-72
2021/12/09 05:33:02;;;;;;;67.00;31.03;;;;;;;1.73;nan;99836.63;5115681;28;20154;-73
2021/12/09 05:35:28;;;;;;;52.53;21.47;;;;;;;0.75;nan;99802.00;5115829;28;20439;-72
2021/12/09 05:37:53;;;;;;;42.40;20.17;;;;;;;0.59;nan;99792.84;5116652;28;20531;-73
2021/12/09 05:40:18;;;;;;;58.87;28.00;;;;;;;1.32;nan;99818.66;5115344;28;20163;-72
2021/12/09 05:42:44;;;;;;;55.10;29.57;;;;;;;1.47;nan;99826.94;5114918;27;20201;-73
2021/12/09 05:45:09;;;;;;;60.10;27.60;;;;;;;1.32;nan;99808.16;5115074;28;20232;-72
2021/12/09 05:47:34;;;;;;;57.30;27.70;;;;;;;1.68;nan;99800.84;5114065;28;20212;-72
2021/12/09 05:50:00;;;;;;;57.63;27.03;;;;;;;1.28;nan;99846.81;5115718;28;20272;-73
2021/12/09 05:52:25;;;;;;;59.90;28.30;;;;;;;1.74;nan;99851.50;5115728;28;20174;-71
2021/12/09 05:54:51;;;;;;;58.47;27.40;;;;;;;1.98;nan;99820.03;5115613;28;20217;-73
2021/12/09 05:57:16;;;;;;;51.93;25.23;;;;;;;1.36;nan;99818.53;5114147;28;20197;-73
2021/12/09 05:59:43;;;;;;;50.80;22.20;;;;;;;1.03;nan;99862.47;5114833;28;20197;-73
2021/12/09 06:02:10;;;;;;;48.30;25.03;;;;;;;1.40;nan;99879.75;5114542;28;20673;-74
2021/12/09 06:04:36;;;;;;;57.70;27.17;;;;;;;1.61;nan;99909.81;5116079;28;20414;-73
2021/12/09 06:07:03;;;;;;;57.73;26.57;;;;;;;1.44;nan;99871.72;5130631;28;20453;-72
2021/12/09 06:09:28;;;;;;;50.97;27.27;;;;;;;2.11;nan;99890.63;5130674;28;20539;-73
2021/12/09 06:11:53;;;;;;;53.60;26.83;;;;;;;1.48;nan;99862.84;5133369;28;20197;-72
2021/12/09 06:14:19;;;;;;;61.90;28.40;;;;;;;1.68;nan;99909.56;5136452;28;20179;-72
2021/12/09 06:16:45;;;;;;;57.20;28.43;;;;;;;2.25;nan;99876.16;5116519;28;20547;-73
2021/12/09 06:19:10;;;;;;;55.40;27.77;;;;;;;2.00;nan;99882.22;5113603;28;20543;-72
2021/12/09 06:21:36;;;;;;;55.17;26.27;;;;;;;2.03;nan;99874.22;5113201;28;20399;-72
2021/12/09 06:24:02;;;;;;;55.17;24.40;;;;;;;1.06;nan;99891.28;5114275;28;20183;-72
2021/12/09 06:26:29;;;;;;;62.50;27.00;;;;;;;1.43;nan;99905.97;5114051;28;20192;-72
2021/12/09 06:28:54;;;;;;;56.83;27.23;;;;;;;1.64;nan;99893.94;5113147;28;20465;-72
2021/12/09 06:31:20;;;;;;;61.87;29.70;;;;;;;2.25;nan;99907.75;5114341;28;20553;-72
2021/12/09 06:33:46;;;;;;;57.33;27.97;;;;;;;2.18;nan;99892.13;5114210;28;20181;-72
2021/12/09 06:36:11;;;;;;;60.20;27.47;;;;;;;2.38;nan;99882.72;5112761;28;20672;-72
2021/12/09 06:38:36;;;;;;;58.60;28.63;;;;;;;2.56;nan;99892.59;5112841;28;20175;-73
2021/12/09 06:41:02;;;;;;;57.97;28.20;;;;;;;2.10;nan;99870.47;5095631;28;20165;-72
2021/12/09 06:43:27;;;;;;;60.80;28.13;;;;;;;2.07;nan;99882.88;5114245;27;20169;-72
2021/12/09 06:45:54;;;;;;;57.77;27.77;;;;;;;2.31;nan;99892.59;5113855;28;20213;-72
2021/12/09 06:48:20;;;;;;;59.80;28.27;;;;;;;2.34;nan;99867.94;5113405;28;20219;-73
2021/12/09 06:50:46;;;;;;;68.37;29.30;;;;;;;2.06;nan;99905.72;5113956;28;20953;-72
2021/12/09 06:53:12;;;;;;;61.10;27.80;;;;;;;1.96;nan;99872.72;5114397;28;20171;-73
2021/12/09 06:55:38;;;;;;;66.87;29.47;;;;;;;2.08;nan;99910.91;5095824;28;20208;-74
2021/12/09 06:58:04;;;;;;;58.80;29.20;;;;;;;2.49;nan;99894.59;5113186;28;20901;-72
2021/12/09 07:00:31;;;;;;;58.80;29.57;;;;;;;2.82;nan;99892.53;5113807;28;20166;-74
2021/12/09 07:02:56;;;;;;;58.80;28.13;;;;;;;2.78;nan;99867.22;5127948;28;20445;-74
2021/12/09 07:05:23;;;;;;;57.10;27.57;;;;;;;2.59;nan;99881.94;5113807;28;20433;-72
2021/12/09 07:07:50;;;;;;;52.47;26.70;;;;;;;2.82;nan;99875.84;5095948;28;20163;-73
2021/12/09 07:10:16;;;;;;;58.07;29.33;;;;;;;2.68;nan;99871.09;5115018;28;20413;-72
2021/12/09 07:12:42;;;;;;;53.73;27.27;;;;;;;2.41;nan;99862.38;5114214;28;20486;-73
2021/12/09 07:15:10;;;;;;;59.63;27.70;;;;;;;2.74;nan;99875.28;5112731;28;20675;-74
2021/12/09 07:17:36;;;;;;;56.57;27.43;;;;;;;2.33;nan;99882.00;5113699;28;20415;-73
2021/12/09 07:20:04;;;;;;;54.33;27.67;;;;;;;3.00;nan;99882.25;5122729;28;20412;-73
2021/12/09 07:22:29;;;;;;;53.47;27.07;;;;;;;3.11;nan;99845.78;5123031;28;20233;-73
2021/12/09 07:24:54;;;;;;;63.67;27.03;;;;;;;2.93;nan;99844.69;5114850;28;20887;-74
2021/12/09 07:27:20;;;;;;;61.27;28.40;;;;;;;2.08;nan;99858.28;5112686;28;20215;-74
2021/12/09 07:29:45;;;;;;;61.17;29.13;;;;;;;2.14;nan;99882.63;5113980;28;20182;-73
2021/12/09 07:32:10;;;;;;;54.47;27.23;;;;;;;2.07;nan;99861.81;5112597;28;20197;-74
2021/12/09 07:34:37;;;;;;;56.67;26.80;;;;;;;1.92;nan;99880.75;5114345;28;20178;-72
2021/12/09 07:37:04;;;;;;;56.20;27.67;;;;;;;2.41;nan;99872.94;5112407;28;20193;-73
2021/12/09 07:39:30;;;;;;;54.83;27.40;;;;;;;2.32;nan;99880.28;5095752;28;20478;-73
2021/12/09 07:41:56;;;;;;;59.30;28.17;;;;;;;2.43;nan;99846.53;5112764;28;20412;-73
2021/12/09 07:44:22;;;;;;;56.87;27.87;;;;;;;2.26;nan;99851.53;5114341;28;20401;-73
2021/12/09 07:46:48;;;;;;;63.67;28.77;;;;;;;2.72;nan;99816.50;5096006;28;20189;-72
2021/12/09 07:49:14;;;;;;;60.97;29.13;;;;;;;2.40;nan;99859.81;5100054;28;20512;-72
2021/12/09 07:51:39;;;;;;;53.67;26.67;;;;;;;1.62;nan;99848.41;5116991;28;20559;-73
2021/12/09 07:54:05;;;;;;;51.93;26.93;;;;;;;2.11;nan;99858.16;5118785;28;20415;-73
2021/12/09 07:56:30;;;;;;;55.17;26.30;;;;;;;2.24;nan;99856.00;5117600;28;20245;-72
2021/12/09 07:58:55;;;;;;;63.43;29.40;;;;;;;2.51;nan;99852.38;5116379;28;20181;-74
2021/12/09 08:01:21;;;;;;;59.93;27.60;;;;;;;2.11;nan;99853.75;5117693;28;20269;-74
2021/12/09 08:03:47;;;;;;;55.23;27.97;;;;;;;1.95;nan;99830.66;5117631;28;20174;-73
2021/12/09 08:06:14;;;;;;;61.80;26.77;;;;;;;2.04;nan;99836.47;5117051;27;20207;-72
2021/12/09 08:08:39;;;;;;;55.00;27.07;;;;;;;1.94;nan;99844.72;5115974;28;20929;-73
2021/12/09 08:11:05;;;;;;;67.27;30.43;;;;;;;2.39;nan;99847.56;5116733;28;20440;-73
2021/12/09 08:13:31;;;;;;;64.60;30.30;;;;;;;1.88;nan;99865.06;5116424;28;20175;-72
2021/12/09 08:15:56;;;;;;;64.63;29.83;;;;;;;2.07;nan;99877.63;5117572;28;20613;-73
2021/12/09 08:20:48;;;;;;;64.93;29.30;;;;;;;3.01;nan;99879.56;5116533;28;20169;-74
2021/12/09 08:23:14;;;;;;;59.03;28.50;;;;;;;2.74;nan;99862.09;5115881;28;20662;-73
2021/12/09 08:25:39;;;;;;;61.40;29.93;;;;;;;2.98;nan;99863.00;5117334;28;20429;-73
2021/12/09 08:28:05;;;;;;;66.20;29.33;;;;;;;2.33;nan;99867.06;5115863;28;20217;-72
2021/12/09 08:30:30;;;;;;;62.57;28.43;;;;;;;2.66;nan;99857.13;5115784;28;20200;-72
2021/12/09 08:32:56;;;;;;;69.13;30.13;;;;;;;2.39;nan;99873.91;5098884;28;20177;-72
2021/12/09 08:35:21;;;;;;;65.27;28.50;;;;;;;3.09;nan;99864.31;5116936;28;20652;-71
2021/12/09 08:37:47;;;;;;;68.07;30.37;;;;;;;3.30;nan;99869.66;5115472;28;20177;-73
2021/12/09 08:40:15;;;;;;;61.97;30.13;;;;;;;3.06;nan;99861.78;5115706;28;20169;-72
2021/12/09 08:42:40;;;;;;;62.43;29.07;;;;;;;2.74;nan;99849.78;5098548;28;20409;-72
2021/12/09 08:45:09;;;;;;;67.63;31.40;;;;;;;2.60;nan;99893.34;5098989;28;20173;-73
2021/12/09 08:47:36;;;;;;;70.80;30.13;;;;;;;2.50;nan;99882.28;5116853;28;20170;-72
2021/12/09 08:50:02;;;;;;;65.37;31.30;;;;;;;2.62;nan;99904.72;5116691;28;20402;-72
2021/12/09 08:52:27;;;;;;;68.87;30.37;;;;;;;3.01;nan;99865.53;5115748;28;20213;-73
2021/12/09 08:54:52;;;;;;;68.47;31.70;;;;;;;2.90;nan;99870.31;5115282;28;20162;-73
2021/12/09 08:57:19;;;;;;;62.30;29.13;;;;;;;2.27;nan;99861.16;5115260;28;20197;-73
2021/12/09 08:59:45;;;;;;;62.10;30.90;;;;;;;2.12;nan;99902.88;5115252;28;20170;-73
2021/12/09 09:02:10;;;;;;;67.47;31.03;;;;;;;2.59;nan;99915.31;5114893;28;20170;-72
2021/12/09 09:04:36;;;;;;;63.53;28.87;;;;;;;2.30;nan;99900.56;5115417;28;20272;-72
2021/12/09 09:07:02;;;;;;;69.87;30.90;;;;;;;2.15;nan;99905.41;5115837;28;20242;-72
2021/12/09 09:09:33;;;;;;;68.67;31.03;;;;;;;2.87;nan;99888.88;5097631;28;20180;-72
2021/12/09 09:11:59;;;;;;;66.33;29.77;;;;;;;2.59;nan;99866.13;5114875;28;20189;-73
2021/12/09 09:14:24;;;;;;;64.97;30.07;;;;;;;2.62;nan;99887.13;5114811;28;20472;-73
2021/12/09 09:16:50;;;;;;;66.00;29.67;;;;;;;2.56;nan;99860.97;5115589;28;20441;-71
2021/12/09 09:19:15;;;;;;;65.50;29.80;;;;;;;2.08;nan;99858.28;5116099;28;20571;-72
2021/12/09 09:21:42;;;;;;;65.23;28.87;;;;;;;2.11;nan;99858.16;5114489;28;20551;-73
2021/12/09 09:24:07;;;;;;;66.70;30.20;;;;;;;1.94;nan;99869.28;5115623;27;20173;-72
2021/12/09 09:26:33;;;;;;;65.50;28.93;;;;;;;2.46;nan;99849.06;5114492;28;20438;-72
2021/12/09 09:28:58;;;;;;;63.33;29.13;;;;;;;2.04;nan;99867.19;5114442;28;20173;-73
2021/12/09 09:31:29;;;;;;;59.03;27.10;;;;;;;2.39;nan;99847.56;5114143;28;20772;-73
2021/12/09 09:33:54;;;;;;;66.67;29.27;;;;;;;2.48;nan;99873.56;5114208;28;20165;-73
2021/12/09 09:36:20;;;;;;;59.87;27.30;;;;;;;2.03;nan;99855.81;5114217;28;20438;-73
2021/12/09 09:38:45;;;;;;;68.80;29.30;;;;;;;2.58;nan;99853.03;5115807;28;20177;-72
2021/12/09 09:41:15;;;;;;;65.97;29.73;;;;;;;1.81;nan;99850.38;5097802;28;20196;-75
2021/12/09 09:46:19;;;;;;;67.20;29.47;;;;;;;1.61;nan;99875.63;5118185;28;20510;-73
2021/12/09 09:48:46;;;;;;;73.00;32.87;;;;;;;1.49;nan;99890.88;5115589;28;20158;-74
2021/12/09 09:51:11;;;;;;;73.50;31.10;;;;;;;1.92;nan;99868.47;5113938;28;20441;-73
2021/12/09 09:53:38;;;;;;;69.77;30.60;;;;;;;2.55;nan;99874.22;5114351;28;20176;-74
2021/12/09 09:56:12;;;;;;;72.23;30.93;;;;;;;2.71;nan;99864.84;5114654;28;20697;-73
2021/12/09 09:58:38;;;;;;;82.07;32.20;;;;;;;2.45;nan;99863.13;5115551;28;20458;-75
2021/12/09 10:01:03;;;;;;;75.73;32.23;;;;;;;2.93;nan;99825.38;5098800;28;20176;-73
2021/12/09 10:03:30;;;;;;;71.47;30.63;;;;;;;2.19;nan;99827.16;5116656;28;20592;-73
2021/12/09 10:05:57;;;;;;;76.33;31.53;;;;;;;2.00;nan;99873.47;5115269;28;20218;-72
2021/12/09 10:08:22;;;;;;;70.27;30.33;;;;;;;2.18;nan;99839.47;5114351;28;20463;-73
2021/12/09 10:10:48;;;;;;;74.70;29.63;;;;;;;2.37;nan;99839.72;5115001;28;20460;-73
2021/12/09 10:13:15;;;;;;;64.67;29.90;;;;;;;2.16;nan;99878.16;5114846;28;20172;-73
2021/12/09 10:15:47;;;;;;;61.97;27.57;;;;;;;2.01;nan;99854.13;5097369;28;20211;-73
2021/12/09 10:18:14;;;;;;;64.80;29.80;;;;;;;1.71;nan;99874.41;5114466;28;20418;-72
2021/12/09 10:20:54;;;;;;;67.80;32.10;;;;;;;2.19;nan;99856.13;5114422;28;20464;-72
2021/12/09 10:23:39;;;;;;;69.70;29.37;;;;;;;2.32;nan;99859.22;5113057;28;20417;-73
2021/12/09 10:26:27;;;;;;;70.57;29.63;;;;;;;2.44;nan;99883.34;5113539;28;20469;-72
2021/12/09 10:29:16;;;;;;;65.33;31.00;;;;;;;2.90;nan;99896.66;5096394;28;20414;-72
2021/12/09 10:31:50;;;;;;;63.00;28.83;;;;;;;3.48;nan;99866.31;5113363;28;20445;-73
2021/12/09 10:34:32;;;;;;;65.67;30.07;;;;;;;2.35;nan;99843.31;5113459;28;20382;-71
2021/12/09 10:37:01;;;;;;;69.33;28.23;;;;;;;3.26;nan;99868.94;5113557;28;20440;-73
2021/12/09 10:39:40;;;;;;;65.27;29.90;;;;;;;3.78;nan;99856.34;5114770;28;20767;-72
2021/12/09 10:42:08;;;;;;;64.80;28.93;;;;;;;3.02;nan;99822.41;5113233;28;20169;-72
2021/12/09 10:44:44;;;;;;;63.30;29.40;;;;;;;3.60;nan;99836.81;5114289;28;20437;-71
2021/12/09 10:47:16;;;;;;;63.40;27.90;;;;;;;3.66;nan;99870.88;5096641;28;20441;-72
2021/12/09 10:49:47;;;;;;;61.57;29.03;;;;;;;3.28;nan;99855.69;5096636;28;20176;-73
2021/12/09 10:52:24;;;;;;;67.80;30.23;;;;;;;3.04;nan;99855.72;5113521;28;20190;-73
2021/12/09 10:54:49;;;;;;;62.83;28.13;;;;;;;3.16;nan;99829.78;5115424;28;20442;-72
2021/12/09 10:57:30;;;;;;;58.27;28.63;;;;;;;3.01;nan;99863.75;5116258;28;20693;-72
2021/12/09 10:59:57;;;;;;;60.20;28.47;;;;;;;3.49;nan;99828.47;5114904;28;20174;-72
2021/12/09 11:02:23;;;;;;;61.47;24.87;;;;;;;2.12;nan;99847.59;5115129;28;20189;-74
2021/12/09 11:05:06;;;;;;;61.73;25.80;;;;;;;2.48;nan;99905.16;5114123;28;20221;-73
2021/12/09 11:07:32;;;;;;;60.73;27.73;;;;;;;3.73;nan;99860.94;5113469;28;20951;-73
2021/12/09 11:10:19;;;;;;;60.30;29.23;;;;;;;3.86;nan;99851.59;5115406;28;20244;-74
2021/12/09 11:12:56;;;;;;;61.50;28.37;;;;;;;3.88;nan;99876.16;5115369;28;20170;-73
2021/12/09 11:15:24;;;;;;;60.30;27.77;;;;;;;3.96;nan;99849.44;5114042;28;20226;-73
2021/12/09 11:17:52;;;;;;;58.20;28.10;;;;;;;3.69;nan;99847.00;5112347;28;20538;-72
2021/12/09 11:20:45;;;;;;;55.97;27.10;;;;;;;3.93;nan;99853.06;5112118;28;20419;-74
2021/12/09 11:23:31;;;;;;;59.67;29.03;;;;;;;4.46;nan;99886.06;5115270;28;20173;-72
2021/12/09 11:26:17;;;;;;;58.87;26.70;;;;;;;3.82;nan;99863.22;5115526;28;20204;-73
2021/12/09 11:28:53;;;;;;;57.90;28.37;;;;;;;4.29;nan;99865.66;5116779;28;20165;-73
2021/12/09 11:31:19;;;;;;;56.47;25.40;;;;;;;3.68;nan;99836.50;5115330;28;20189;-72
2021/12/09 11:33:46;;;;;;;57.37;26.30;;;;;;;4.34;nan;99855.75;5117095;28;20177;-72
2021/12/09 11:36:17;;;;;;;56.73;25.03;;;;;;;4.05;nan;99834.06;5116492;28;20216;-73
2021/12/09 11:39:11;;;;;;;52.27;25.17;;;;;;;4.24;nan;99855.28;5116494;28;20161;-72
2021/12/09 11:41:38;;;;;;;48.33;23.40;;;;;;;3.65;nan;99839.25;5116508;28;20186;-72
2021/12/09 11:44:06;;;;;;;54.77;25.33;;;;;;;3.09;nan;99823.91;5115179;28;20233;-71
2021/12/09 11:46:33;;;;;;;52.57;25.63;;;;;;;3.54;nan;99854.66;5116729;28;20211;-71
2021/12/09 11:48:58;;;;;;;53.60;26.63;;;;;;;3.57;nan;99817.59;5116381;28;20412;-72